createdAt,value
2023-04-23T00:00:54.905Z,24.71
2023-04-23T00:01:54.121Z,24.70
2023-04-23T00:02:55.099Z,24.70
2023-04-23T00:03:54.240Z,24.69
2023-04-23T00:04:54.343Z,24.70
2023-04-23T00:05:54.033Z,24.70
2023-04-23T00:06:53.994Z,24.70
2023-04-23T00:07:53.962Z,24.70
2023-04-23T00:08:53.931Z,24.70
2023-04-23T00:09:53.897Z,24.70
2023-04-23T00:10:53.860Z,24.71
2023-04-23T00:11:53.856Z,24.70
2023-04-23T00:12:53.831Z,24.69
2023-04-23T00:13:53.832Z,24.69
2023-04-23T00:14:53.750Z,24.68
2023-04-23T00:15:53.765Z,24.67
2023-04-23T00:16:53.725Z,24.67
2023-04-23T00:17:53.716Z,24.67
2023-04-23T00:18:53.676Z,24.67
2023-04-23T00:19:53.644Z,24.68
2023-04-23T00:20:53.600Z,24.68
2023-04-23T00:21:53.602Z,24.69
2023-04-23T00:22:53.562Z,24.69
2023-04-23T00:23:53.553Z,24.69
2023-04-23T00:24:53.493Z,24.70
2023-04-23T00:25:53.497Z,24.70
2023-04-23T00:26:53.482Z,24.70
2023-04-23T00:27:53.436Z,24.70
2023-04-23T00:28:53.425Z,24.71
2023-04-23T00:29:53.381Z,24.72
2023-04-23T00:30:53.369Z,24.72
2023-04-23T00:31:53.480Z,24.73
2023-04-23T00:32:53.361Z,24.72
2023-04-23T00:33:53.292Z,24.72
2023-04-23T00:34:53.254Z,24.73
2023-04-23T00:35:53.216Z,24.72
2023-04-23T00:36:53.234Z,24.73
2023-04-23T00:37:53.167Z,24.74
2023-04-23T00:38:53.134Z,24.74
2023-04-23T00:39:53.146Z,24.74
2023-04-23T00:40:53.104Z,24.75
2023-04-23T00:41:53.098Z,24.75
2023-04-23T00:42:53.086Z,24.75
2023-04-23T00:43:53.008Z,24.76
2023-04-23T00:44:53.035Z,24.76
2023-04-23T00:45:53.053Z,24.76
2023-04-23T00:46:53.027Z,24.76
2023-04-23T00:47:53.078Z,24.76
2023-04-23T00:48:53.021Z,24.76
2023-04-23T00:49:53.046Z,24.77
2023-04-23T00:50:53.005Z,24.77
2023-04-23T00:51:53.026Z,24.77
2023-04-23T00:52:53.023Z,24.77
2023-04-23T00:53:52.996Z,24.78
2023-04-23T00:54:53.026Z,24.77
2023-04-23T00:55:53.014Z,24.77
2023-04-23T00:56:53.038Z,24.78
2023-04-23T00:57:52.987Z,24.78
2023-04-23T00:58:53.001Z,24.77
2023-04-23T00:59:53.012Z,24.77
2023-04-23T01:00:53.065Z,24.77
2023-04-23T01:01:53.036Z,24.77
2023-04-23T01:02:53.381Z,24.77
2023-04-23T01:03:53.528Z,24.77
2023-04-23T01:04:53.090Z,24.77
2023-04-23T01:05:53.103Z,24.77
2023-04-23T01:06:53.108Z,24.77
2023-04-23T01:07:53.145Z,24.77
2023-04-23T01:08:53.124Z,24.76
2023-04-23T01:09:53.083Z,24.77
2023-04-23T01:10:53.116Z,24.76
2023-04-23T01:11:53.089Z,24.76
2023-04-23T01:12:53.068Z,24.76
2023-04-23T01:13:53.083Z,24.77
2023-04-23T01:14:53.078Z,24.77
2023-04-23T01:15:53.065Z,24.77
2023-04-23T01:16:53.110Z,24.78
2023-04-23T01:17:53.096Z,24.78
2023-04-23T01:18:53.086Z,24.78
2023-04-23T01:19:53.083Z,24.78
2023-04-23T01:20:53.088Z,24.78
2023-04-23T01:21:53.089Z,24.78
2023-04-23T01:22:53.061Z,24.78
2023-04-23T01:23:53.076Z,24.78
2023-04-23T01:24:53.104Z,24.78
2023-04-23T01:25:53.073Z,24.79
2023-04-23T01:26:53.061Z,24.79
2023-04-23T01:27:53.037Z,24.79
2023-04-23T01:28:53.030Z,24.79
2023-04-23T01:29:53.077Z,24.79
2023-04-23T01:30:53.055Z,24.79
2023-04-23T01:31:53.066Z,24.80
2023-04-23T01:32:53.105Z,24.80
2023-04-23T01:33:53.048Z,24.79
2023-04-23T01:34:53.095Z,24.78
2023-04-23T01:35:53.089Z,24.78
2023-04-23T01:36:53.077Z,24.77
2023-04-23T01:37:53.108Z,24.77
2023-04-23T01:38:53.065Z,24.76
2023-04-23T01:39:53.079Z,24.75
2023-04-23T01:40:53.101Z,24.75
2023-04-23T01:41:53.051Z,24.74
2023-04-23T01:42:53.094Z,24.74
2023-04-23T01:43:53.071Z,24.74
2023-04-23T01:44:53.095Z,24.73
2023-04-23T01:45:53.118Z,24.73
2023-04-23T01:46:53.091Z,24.73
2023-04-23T01:47:53.117Z,24.73
2023-04-23T01:48:53.140Z,24.73
2023-04-23T01:49:53.109Z,24.73
2023-04-23T01:50:53.092Z,24.73
2023-04-23T01:51:53.132Z,24.74
2023-04-23T01:52:53.115Z,24.74
2023-04-23T01:53:53.099Z,24.74
2023-04-23T01:54:53.081Z,24.74
2023-04-23T01:55:53.088Z,24.74
2023-04-23T01:56:53.074Z,24.74
2023-04-23T01:57:53.069Z,24.75
2023-04-23T01:58:53.091Z,24.75
2023-04-23T01:59:53.107Z,24.75
2023-04-23T02:00:53.114Z,24.76
2023-04-23T02:01:53.162Z,24.76
2023-04-23T02:02:53.224Z,24.77
2023-04-23T02:03:53.127Z,24.77
2023-04-23T02:04:53.082Z,24.77
2023-04-23T02:05:53.094Z,24.78
2023-04-23T02:06:53.092Z,24.78
2023-04-23T02:07:53.070Z,24.78
2023-04-23T02:08:53.076Z,24.78
2023-04-23T02:09:53.082Z,24.79
2023-04-23T02:10:53.115Z,24.79
2023-04-23T02:11:53.102Z,24.79
2023-04-23T02:12:53.066Z,24.80
2023-04-23T02:13:53.091Z,24.80
2023-04-23T02:14:53.058Z,24.79
2023-04-23T02:15:53.117Z,24.80
2023-04-23T02:16:53.106Z,24.80
2023-04-23T02:17:53.127Z,24.80
2023-04-23T02:18:53.063Z,24.80
2023-04-23T02:19:53.043Z,24.80
2023-04-23T02:20:53.047Z,24.80
2023-04-23T02:21:53.054Z,24.80
2023-04-23T02:22:53.070Z,24.80
2023-04-23T02:23:53.028Z,24.80
2023-04-23T02:24:53.027Z,24.80
2023-04-23T02:25:53.012Z,24.79
2023-04-23T02:26:53.031Z,24.78
2023-04-23T02:27:53.026Z,24.78
2023-04-23T02:28:53.023Z,24.78
2023-04-23T02:29:53.010Z,24.77
2023-04-23T02:30:53.017Z,24.76
2023-04-23T02:31:53.064Z,24.75
2023-04-23T02:32:53.030Z,24.76
2023-04-23T02:33:52.975Z,24.76
2023-04-23T02:34:52.982Z,24.75
2023-04-23T02:35:52.974Z,24.74
2023-04-23T02:36:52.994Z,24.74
2023-04-23T02:37:52.996Z,24.74
2023-04-23T02:38:53.029Z,24.74
2023-04-23T02:39:52.995Z,24.74
2023-04-23T02:40:53.013Z,24.74
2023-04-23T02:41:52.977Z,24.75
2023-04-23T02:42:52.995Z,24.75
2023-04-23T02:43:52.992Z,24.75
2023-04-23T02:44:52.988Z,24.76
2023-04-23T02:45:53.005Z,24.76
2023-04-23T02:46:53.038Z,24.76
2023-04-23T02:47:53.034Z,24.76
2023-04-23T02:48:53.022Z,24.77
2023-04-23T02:49:52.991Z,24.78
2023-04-23T02:50:52.990Z,24.78
2023-04-23T02:51:52.983Z,24.77
2023-04-23T02:52:52.971Z,24.77
2023-04-23T02:53:52.984Z,24.76
2023-04-23T02:54:52.991Z,24.75
2023-04-23T02:55:52.979Z,24.75
2023-04-23T02:56:52.980Z,24.75
2023-04-23T02:57:53.038Z,24.75
2023-04-23T02:58:53.042Z,24.74
2023-04-23T02:59:53.066Z,24.74
2023-04-23T03:00:53.139Z,24.74
2023-04-23T03:01:53.103Z,24.74
2023-04-23T03:02:53.218Z,24.74
2023-04-23T03:03:53.229Z,24.75
2023-04-23T03:04:53.115Z,24.74
2023-04-23T03:05:53.144Z,24.73
2023-04-23T03:06:53.137Z,24.72
2023-04-23T03:07:53.149Z,24.73
2023-04-23T03:08:53.134Z,24.73
2023-04-23T03:09:53.113Z,24.73
2023-04-23T03:10:53.177Z,24.72
2023-04-23T03:11:53.135Z,24.74
2023-04-23T03:12:53.152Z,24.73
2023-04-23T03:13:53.184Z,24.73
2023-04-23T03:14:53.155Z,24.74
2023-04-23T03:15:53.148Z,24.74
2023-04-23T03:16:53.167Z,24.75
2023-04-23T03:17:53.206Z,24.75
2023-04-23T03:18:53.146Z,24.74
2023-04-23T03:19:53.162Z,24.75
2023-04-23T03:20:53.210Z,24.75
2023-04-23T03:21:53.122Z,24.76
2023-04-23T03:22:53.142Z,24.75
2023-04-23T03:23:53.147Z,24.75
2023-04-23T03:24:53.140Z,24.77
2023-04-23T03:25:53.177Z,24.77
2023-04-23T03:26:53.186Z,24.77
2023-04-23T03:27:53.180Z,24.77
2023-04-23T03:28:53.172Z,24.77
2023-04-23T03:29:53.152Z,24.76
2023-04-23T03:30:53.250Z,24.75
2023-04-23T03:31:53.161Z,24.75
2023-04-23T03:32:53.225Z,24.74
2023-04-23T03:33:53.182Z,24.73
2023-04-23T03:34:53.157Z,24.73
2023-04-23T03:35:53.184Z,24.73
2023-04-23T03:36:53.193Z,24.73
2023-04-23T03:37:53.232Z,24.73
2023-04-23T03:38:53.200Z,24.72
2023-04-23T03:39:53.219Z,24.72
2023-04-23T03:40:53.213Z,24.73
2023-04-23T03:41:53.228Z,24.73
2023-04-23T03:42:53.259Z,24.72
2023-04-23T03:43:53.280Z,24.73
2023-04-23T03:44:53.277Z,24.73
2023-04-23T03:45:53.295Z,24.73
2023-04-23T03:46:53.253Z,24.73
2023-04-23T03:47:53.309Z,24.74
2023-04-23T03:48:53.280Z,24.74
2023-04-23T03:49:53.275Z,24.74
2023-04-23T03:50:53.273Z,24.75
2023-04-23T03:51:53.284Z,24.75
2023-04-23T03:52:53.305Z,24.75
2023-04-23T03:53:53.294Z,24.75
2023-04-23T03:54:53.256Z,24.74
2023-04-23T03:55:53.314Z,24.74
2023-04-23T03:56:53.266Z,24.74
2023-04-23T03:57:53.301Z,24.75
2023-04-23T03:58:53.300Z,24.74
2023-04-23T03:59:53.325Z,24.75
2023-04-23T04:00:53.288Z,24.76
2023-04-23T04:01:53.317Z,24.76
2023-04-23T04:02:53.467Z,24.76
2023-04-23T04:03:53.494Z,24.77
2023-04-23T04:04:53.503Z,24.77
2023-04-23T04:05:53.388Z,24.77
2023-04-23T04:06:53.301Z,24.78
2023-04-23T04:07:53.324Z,24.78
2023-04-23T04:08:53.318Z,24.79
2023-04-23T04:09:53.334Z,24.79
2023-04-23T04:10:53.348Z,24.78
2023-04-23T04:11:53.438Z,24.79
2023-04-23T04:12:53.385Z,24.79
2023-04-23T04:13:53.401Z,24.78
2023-04-23T04:14:53.406Z,24.75
2023-04-23T04:15:53.503Z,24.72
2023-04-23T04:16:53.441Z,24.69
2023-04-23T04:17:53.471Z,24.66
2023-04-23T04:18:56.226Z,24.64
2023-04-23T04:19:53.479Z,24.62
2023-04-23T04:20:53.478Z,24.59
2023-04-23T04:21:53.432Z,24.56
2023-04-23T04:22:53.422Z,24.52
2023-04-23T04:23:53.397Z,24.51
2023-04-23T04:24:53.366Z,24.48
2023-04-23T04:25:53.382Z,24.48
2023-04-23T04:26:53.324Z,24.46
2023-04-23T04:27:53.314Z,24.44
2023-04-23T04:28:53.284Z,24.43
2023-04-23T04:29:53.262Z,24.43
2023-04-23T04:30:53.225Z,24.43
2023-04-23T04:31:53.286Z,24.44
2023-04-23T04:32:53.173Z,24.45
2023-04-23T04:33:53.141Z,24.46
2023-04-23T04:34:53.133Z,24.47
2023-04-23T04:35:53.106Z,24.47
2023-04-23T04:36:53.053Z,24.48
2023-04-23T04:37:53.044Z,24.50
2023-04-23T04:38:53.047Z,24.51
2023-04-23T04:39:52.970Z,24.52
2023-04-23T04:40:52.948Z,24.53
2023-04-23T04:41:52.923Z,24.55
2023-04-23T04:42:52.894Z,24.56
2023-04-23T04:43:52.867Z,24.57
2023-04-23T04:44:52.823Z,24.58
2023-04-23T04:45:52.807Z,24.59
2023-04-23T04:46:52.810Z,24.60
2023-04-23T04:47:52.790Z,24.60
2023-04-23T04:48:52.713Z,24.61
2023-04-23T04:49:52.699Z,24.62
2023-04-23T04:50:52.660Z,24.63
2023-04-23T04:51:52.624Z,24.63
2023-04-23T04:52:52.576Z,24.64
2023-04-23T04:53:52.568Z,24.65
2023-04-23T04:54:52.564Z,24.65
2023-04-23T04:55:52.509Z,24.65
2023-04-23T04:56:52.450Z,24.66
2023-04-23T04:57:52.412Z,24.67
2023-04-23T04:58:52.373Z,24.68
2023-04-23T04:59:52.358Z,24.68
2023-04-23T05:00:52.399Z,24.68
2023-04-23T05:01:52.322Z,24.68
2023-04-23T05:02:52.401Z,24.69
2023-04-23T05:03:52.337Z,24.69
2023-04-23T05:04:52.243Z,24.70
2023-04-23T05:05:52.159Z,24.71
2023-04-23T05:06:52.197Z,24.71
2023-04-23T05:07:52.123Z,24.71
2023-04-23T05:08:52.123Z,24.71
2023-04-23T05:09:52.047Z,24.72
2023-04-23T05:10:52.043Z,24.72
2023-04-23T05:11:52.003Z,24.72
2023-04-23T05:12:52.124Z,24.71
2023-04-23T05:13:51.994Z,24.71
2023-04-23T05:14:52.978Z,24.72
2023-04-23T05:15:52.036Z,24.72
2023-04-23T05:16:52.105Z,24.73
2023-04-23T05:17:52.052Z,24.73
2023-04-23T05:18:52.056Z,24.73
2023-04-23T05:19:52.031Z,24.73
2023-04-23T05:20:52.030Z,24.74
2023-04-23T05:21:52.129Z,24.74
2023-04-23T05:22:52.057Z,24.74
2023-04-23T05:23:52.008Z,24.75
2023-04-23T05:24:52.037Z,24.75
2023-04-23T05:25:54.169Z,24.75
2023-04-23T05:26:52.048Z,24.76
2023-04-23T05:27:52.055Z,24.76
2023-04-23T05:28:52.601Z,24.76
2023-04-23T05:29:52.032Z,24.76
2023-04-23T05:30:52.053Z,24.76
2023-04-23T05:31:52.103Z,24.77
2023-04-23T05:32:52.191Z,24.77
2023-04-23T05:33:52.065Z,24.78
2023-04-23T05:34:52.058Z,24.78
2023-04-23T05:35:52.030Z,24.78
2023-04-23T05:36:52.039Z,24.79
2023-04-23T05:37:52.031Z,24.80
2023-04-23T05:38:52.039Z,24.80
2023-04-23T05:39:52.052Z,24.80
2023-04-23T05:40:52.016Z,24.80
2023-04-23T05:41:52.017Z,24.81
2023-04-23T05:42:52.002Z,24.81
2023-04-23T05:43:52.020Z,24.81
2023-04-23T05:44:52.605Z,24.82
2023-04-23T05:45:52.231Z,24.81
2023-04-23T05:46:52.070Z,24.81
2023-04-23T05:47:52.108Z,24.81
2023-04-23T05:48:51.996Z,24.81
2023-04-23T05:49:52.004Z,24.81
2023-04-23T05:50:52.020Z,24.83
2023-04-23T05:51:52.054Z,24.82
2023-04-23T05:52:52.015Z,24.83
2023-04-23T05:53:52.010Z,24.83
2023-04-23T05:54:52.009Z,24.83
2023-04-23T05:55:52.024Z,24.84
2023-04-23T05:56:54.575Z,24.84
2023-04-23T05:57:51.982Z,24.84
2023-04-23T05:58:51.997Z,24.85
2023-04-23T05:59:51.923Z,24.85
2023-04-23T06:00:51.883Z,24.84
2023-04-23T06:01:51.857Z,24.85
2023-04-23T06:02:51.984Z,24.85
2023-04-23T06:03:52.080Z,24.85
2023-04-23T06:04:51.985Z,24.85
2023-04-23T06:05:51.772Z,24.86
2023-04-23T06:06:51.694Z,24.86
2023-04-23T06:07:51.682Z,24.87
2023-04-23T06:08:51.660Z,24.86
2023-04-23T06:09:51.610Z,24.86
2023-04-23T06:10:51.559Z,24.85
2023-04-23T06:11:51.504Z,24.84
2023-04-23T06:12:51.505Z,24.84
2023-04-23T06:13:51.479Z,24.85
2023-04-23T06:14:51.437Z,24.84
2023-04-23T06:15:51.472Z,24.84
2023-04-23T06:16:51.381Z,24.84
2023-04-23T06:17:51.368Z,24.84
2023-04-23T06:18:51.332Z,24.85
2023-04-23T06:19:51.285Z,24.85
2023-04-23T06:20:51.266Z,24.84
2023-04-23T06:21:51.213Z,24.83
2023-04-23T06:22:51.197Z,24.81
2023-04-23T06:23:51.176Z,24.80
2023-04-23T06:24:51.120Z,24.79
2023-04-23T06:25:51.138Z,24.75
2023-04-23T06:26:51.608Z,24.73
2023-04-23T06:27:51.072Z,24.71
2023-04-23T06:28:51.029Z,24.69
2023-04-23T06:29:51.024Z,24.67
2023-04-23T06:30:50.984Z,24.66
2023-04-23T06:31:51.025Z,24.66
2023-04-23T06:32:50.961Z,24.65
2023-04-23T06:33:50.885Z,24.64
2023-04-23T06:35:00.294Z,24.65
2023-04-23T06:35:51.873Z,24.65
2023-04-23T06:36:50.826Z,24.66
2023-04-23T06:37:50.810Z,24.67
2023-04-23T06:38:50.768Z,24.68
2023-04-23T06:39:50.717Z,24.67
2023-04-23T06:40:50.707Z,24.67
2023-04-23T06:41:50.681Z,24.66
2023-04-23T06:42:50.670Z,24.66
2023-04-23T06:43:50.637Z,24.66
2023-04-23T06:44:50.606Z,24.67
2023-04-23T06:45:50.581Z,24.65
2023-04-23T06:46:50.603Z,24.67
2023-04-23T06:47:50.565Z,24.67
2023-04-23T06:48:50.511Z,24.68
2023-04-23T06:49:50.517Z,24.67
2023-04-23T06:50:50.592Z,24.65
2023-04-23T06:51:50.498Z,24.64
2023-04-23T06:52:50.539Z,24.63
2023-04-23T06:53:50.585Z,24.63
2023-04-23T06:54:50.575Z,24.62
2023-04-23T06:55:50.611Z,24.62
2023-04-23T06:56:50.625Z,24.62
2023-04-23T06:57:50.664Z,24.63
2023-04-23T06:58:50.677Z,24.63
2023-04-23T06:59:50.687Z,24.63
2023-04-23T07:00:50.730Z,24.63
2023-04-23T07:01:50.737Z,24.63
2023-04-23T07:02:50.802Z,24.64
2023-04-23T07:03:50.776Z,24.65
2023-04-23T07:04:50.788Z,24.64
2023-04-23T07:05:50.798Z,24.66
2023-04-23T07:06:50.787Z,24.67
2023-04-23T07:07:50.804Z,24.68
2023-04-23T07:08:50.846Z,24.69
2023-04-23T07:09:50.839Z,24.70
2023-04-23T07:10:50.852Z,24.72
2023-04-23T07:11:50.859Z,24.73
2023-04-23T07:12:50.842Z,24.75
2023-04-23T07:13:50.867Z,24.75
2023-04-23T07:14:50.858Z,24.77
2023-04-23T07:15:50.879Z,24.78
2023-04-23T07:16:50.881Z,24.79
2023-04-23T07:17:51.041Z,24.81
2023-04-23T07:18:50.895Z,24.82
2023-04-23T07:19:50.856Z,24.83
2023-04-23T07:20:50.912Z,24.84
2023-04-23T07:21:50.901Z,24.85
2023-04-23T07:22:50.900Z,24.85
2023-04-23T07:23:50.901Z,24.86
2023-04-23T07:24:50.920Z,24.87
2023-04-23T07:25:50.901Z,24.87
2023-04-23T07:26:50.920Z,24.88
2023-04-23T07:27:50.921Z,24.88
2023-04-23T07:28:52.777Z,24.89
2023-04-23T07:29:50.936Z,24.90
2023-04-23T07:30:50.927Z,24.91
2023-04-23T07:31:50.960Z,24.91
2023-04-23T07:32:50.961Z,24.92
2023-04-23T07:33:50.959Z,24.92
2023-04-23T07:34:50.988Z,24.93
2023-04-23T07:35:50.999Z,24.93
2023-04-23T07:36:50.950Z,24.94
2023-04-23T07:37:50.971Z,24.95
2023-04-23T07:38:51.136Z,24.95
2023-04-23T07:39:50.985Z,24.95
2023-04-23T07:40:50.940Z,24.95
2023-04-23T07:41:50.955Z,24.95
2023-04-23T07:42:50.934Z,24.95
2023-04-23T07:43:50.953Z,24.96
2023-04-23T07:44:50.906Z,24.97
2023-04-23T07:45:50.967Z,24.97
2023-04-23T07:46:50.927Z,24.98
2023-04-23T07:47:50.958Z,24.99
2023-04-23T07:48:50.916Z,24.99
2023-04-23T07:49:50.907Z,24.99
2023-04-23T07:50:50.891Z,25.01
2023-04-23T07:51:50.917Z,25.00
2023-04-23T07:52:50.901Z,25.00
2023-04-23T07:53:50.872Z,25.01
2023-04-23T07:54:50.868Z,25.01
2023-04-23T07:55:50.887Z,25.02
2023-04-23T07:56:50.899Z,25.02
2023-04-23T07:57:50.845Z,25.02
2023-04-23T07:58:50.882Z,25.03
2023-04-23T07:59:50.857Z,25.04
2023-04-23T08:00:50.842Z,25.03
2023-04-23T08:01:50.865Z,25.03
2023-04-23T08:02:50.948Z,25.04
2023-04-23T08:03:50.927Z,25.05
2023-04-23T08:04:50.978Z,25.04
2023-04-23T08:05:50.810Z,25.04
2023-04-23T08:06:50.868Z,25.05
2023-04-23T08:07:50.798Z,25.07
2023-04-23T08:08:50.776Z,25.07
2023-04-23T08:09:50.799Z,25.08
2023-04-23T08:10:50.776Z,25.09
2023-04-23T08:11:50.796Z,25.09
2023-04-23T08:12:50.777Z,25.10
2023-04-23T08:13:50.786Z,25.11
2023-04-23T08:14:50.760Z,25.11
2023-04-23T08:15:50.773Z,25.11
2023-04-23T08:16:50.782Z,25.12
2023-04-23T08:17:50.780Z,25.12
2023-04-23T08:19:04.284Z,25.13
2023-04-23T08:19:51.721Z,25.13
2023-04-23T08:20:50.676Z,25.13
2023-04-23T08:21:50.633Z,25.13
2023-04-23T08:22:50.627Z,25.14
2023-04-23T08:23:50.551Z,25.14
2023-04-23T08:24:50.524Z,25.15
2023-04-23T08:25:50.517Z,25.15
2023-04-23T08:26:50.461Z,25.15
2023-04-23T08:27:50.464Z,25.16
2023-04-23T08:28:50.410Z,25.17
2023-04-23T08:29:50.389Z,25.17
2023-04-23T08:30:50.363Z,25.17
2023-04-23T08:31:50.309Z,25.17
2023-04-23T08:32:50.289Z,25.19
2023-04-23T08:33:50.243Z,25.19
2023-04-23T08:34:50.226Z,25.20
2023-04-23T08:35:50.185Z,25.20
2023-04-23T08:36:50.144Z,25.20
2023-04-23T08:37:50.095Z,25.21
2023-04-23T08:38:50.080Z,25.21
2023-04-23T08:39:50.032Z,25.21
2023-04-23T08:40:50.022Z,25.22
2023-04-23T08:41:50.000Z,25.22
2023-04-23T08:42:50.006Z,25.22
2023-04-23T08:43:49.981Z,25.23
2023-04-23T08:44:49.983Z,25.24
2023-04-23T08:45:49.959Z,25.23
2023-04-23T08:46:50.002Z,25.23
2023-04-23T08:47:50.013Z,25.23
2023-04-23T08:48:49.925Z,25.24
2023-04-23T08:49:49.941Z,25.25
2023-04-23T08:50:49.907Z,25.24
2023-04-23T08:51:49.935Z,25.24
2023-04-23T08:52:49.911Z,25.24
2023-04-23T08:53:49.920Z,25.25
2023-04-23T08:54:49.893Z,25.25
2023-04-23T08:55:49.971Z,25.26
2023-04-23T08:56:49.839Z,25.26
2023-04-23T08:57:49.858Z,25.27
2023-04-23T08:58:49.871Z,25.28
2023-04-23T08:59:49.860Z,25.28
2023-04-23T09:00:49.915Z,25.28
2023-04-23T09:01:49.842Z,25.28
2023-04-23T09:02:50.217Z,25.28
2023-04-23T09:03:49.906Z,25.28
2023-04-23T09:04:51.421Z,25.27
2023-04-23T09:05:49.784Z,25.28
2023-04-23T09:06:49.818Z,25.28
2023-04-23T09:07:49.809Z,25.28
2023-04-23T09:08:49.794Z,25.28
2023-04-23T09:09:49.778Z,25.28
2023-04-23T09:10:49.774Z,25.29
2023-04-23T09:11:49.792Z,25.29
2023-04-23T09:12:49.803Z,25.30
2023-04-23T09:13:49.795Z,25.30
2023-04-23T09:14:49.758Z,25.29
2023-04-23T09:15:49.769Z,25.29
2023-04-23T09:16:49.838Z,25.29
2023-04-23T09:17:49.857Z,25.30
2023-04-23T09:18:49.733Z,25.29
2023-04-23T09:19:49.763Z,25.29
2023-04-23T09:20:49.744Z,25.30
2023-04-23T09:21:49.728Z,25.30
2023-04-23T09:22:49.750Z,25.30
2023-04-23T09:23:49.721Z,25.32
2023-04-23T09:24:49.715Z,25.30
2023-04-23T09:25:49.669Z,25.31
2023-04-23T09:26:49.669Z,25.31
2023-04-23T09:27:49.707Z,25.32
2023-04-23T09:28:50.241Z,25.33
2023-04-23T09:29:49.636Z,25.33
2023-04-23T09:30:49.611Z,25.34
2023-04-23T09:31:49.668Z,25.35
2023-04-23T09:32:49.755Z,25.35
2023-04-23T09:33:49.640Z,25.35
2023-04-23T09:34:49.597Z,25.36
2023-04-23T09:35:49.588Z,25.35
2023-04-23T09:36:49.569Z,25.36
2023-04-23T09:37:49.626Z,25.36
2023-04-23T09:38:49.536Z,25.36
2023-04-23T09:39:49.568Z,25.36
2023-04-23T09:40:49.514Z,25.37
2023-04-23T09:41:49.526Z,25.38
2023-04-23T09:42:49.529Z,25.38
2023-04-23T09:43:49.506Z,25.38
2023-04-23T09:44:49.505Z,25.39
2023-04-23T09:45:49.540Z,25.40
2023-04-23T09:46:49.475Z,25.39
2023-04-23T09:47:49.536Z,25.38
2023-04-23T09:48:49.454Z,25.39
2023-04-23T09:49:49.470Z,25.39
2023-04-23T09:50:49.457Z,25.39
2023-04-23T09:51:49.424Z,25.40
2023-04-23T09:52:49.417Z,25.40
2023-04-23T09:53:49.420Z,25.40
2023-04-23T09:54:49.418Z,25.40
2023-04-23T09:55:49.395Z,25.41
2023-04-23T09:56:49.371Z,25.41
2023-04-23T09:57:49.367Z,25.41
2023-04-23T09:58:49.347Z,25.42
2023-04-23T09:59:53.043Z,25.43
2023-04-23T10:00:50.328Z,25.42
2023-04-23T10:01:49.355Z,25.43
2023-04-23T10:02:49.332Z,25.44
2023-04-23T10:03:49.438Z,25.45
2023-04-23T10:04:49.279Z,25.45
2023-04-23T10:06:01.042Z,25.46
2023-04-23T10:07:02.332Z,25.46
2023-04-23T10:07:50.091Z,25.46
2023-04-23T10:08:49.053Z,25.46
2023-04-23T10:09:49.000Z,25.48
2023-04-23T10:11:48.910Z,25.49
2023-04-23T10:12:54.136Z,25.50
2023-04-23T10:13:49.832Z,25.50
2023-04-23T10:14:48.818Z,25.51
2023-04-23T10:15:48.792Z,25.52
2023-04-23T10:16:49.433Z,25.53
2023-04-23T10:17:48.730Z,25.54
2023-04-23T10:18:48.656Z,25.54
2023-04-23T10:19:48.616Z,25.55
2023-04-23T10:20:48.589Z,25.55
2023-04-23T10:21:54.725Z,25.54
2023-04-23T10:22:49.519Z,25.54
2023-04-23T10:23:48.470Z,25.55
2023-04-23T10:24:49.540Z,25.55
2023-04-23T10:25:48.383Z,25.56
2023-04-23T10:26:48.357Z,25.56
2023-04-23T10:27:53.118Z,25.56
2023-04-23T10:28:49.323Z,25.57
2023-04-23T10:29:48.225Z,25.57
2023-04-23T10:30:48.190Z,25.57
2023-04-23T10:31:48.203Z,25.58
2023-04-23T10:32:48.187Z,25.59
2023-04-23T10:33:57.133Z,25.60
2023-04-23T10:34:49.076Z,25.60
2023-04-23T10:35:48.777Z,25.60
2023-04-23T10:36:47.971Z,25.60
2023-04-23T10:37:47.960Z,25.60
2023-04-23T10:38:57.282Z,25.60
2023-04-23T10:39:49.228Z,25.59
2023-04-23T10:40:47.819Z,25.59
2023-04-23T10:41:47.803Z,25.58
2023-04-23T10:42:47.745Z,25.57
2023-04-23T10:43:47.692Z,25.56
2023-04-23T10:45:47.629Z,25.57
2023-04-23T10:46:47.634Z,25.58
2023-04-23T10:47:47.657Z,25.58
2023-04-23T10:48:47.523Z,25.59
2023-04-23T10:49:47.491Z,25.58
2023-04-23T10:51:02.457Z,25.59
2023-04-23T10:52:47.379Z,25.59
2023-04-23T10:53:47.351Z,25.60
2023-04-23T10:54:47.335Z,25.61
2023-04-23T10:55:47.314Z,25.61
2023-04-23T10:56:47.241Z,25.61
2023-04-23T10:57:47.231Z,25.61
2023-04-23T10:58:47.198Z,25.60
2023-04-23T10:59:47.144Z,25.60
2023-04-23T11:00:47.110Z,25.60
2023-04-23T11:01:47.093Z,25.60
2023-04-23T11:02:47.193Z,25.60
2023-04-23T11:03:47.105Z,25.60
2023-04-23T11:04:47.073Z,25.60
2023-04-23T11:05:46.931Z,25.61
2023-04-23T11:06:46.889Z,25.61
2023-04-23T11:07:46.844Z,25.61
2023-04-23T11:08:46.798Z,25.62
2023-04-23T11:09:46.786Z,25.61
2023-04-23T11:10:46.756Z,25.60
2023-04-23T11:11:46.691Z,25.60
2023-04-23T11:12:46.643Z,25.61
2023-04-23T11:13:46.620Z,25.61
2023-04-23T11:14:46.578Z,25.62
2023-04-23T11:15:46.540Z,25.62
2023-04-23T11:16:46.594Z,25.62
2023-04-23T11:17:46.527Z,25.62
2023-04-23T11:18:46.409Z,25.64
2023-04-23T11:19:46.371Z,25.64
2023-04-23T11:20:46.374Z,25.64
2023-04-23T11:21:46.284Z,25.64
2023-04-23T11:22:46.255Z,25.64
2023-04-23T11:23:46.240Z,25.65
2023-04-23T11:24:47.116Z,25.65
2023-04-23T11:25:46.209Z,25.65
2023-04-23T11:26:46.153Z,25.64
2023-04-23T11:27:46.078Z,25.64
2023-04-23T11:28:46.065Z,25.64
2023-04-23T11:29:46.024Z,25.64
2023-04-23T11:30:46.009Z,25.65
2023-04-23T11:32:00.997Z,25.65
2023-04-23T11:32:46.928Z,25.65
2023-04-23T11:33:45.848Z,25.66
2023-04-23T11:34:45.829Z,25.66
2023-04-23T11:35:45.791Z,25.68
2023-04-23T11:36:45.726Z,25.67
2023-04-23T11:37:45.681Z,25.68
2023-04-23T11:38:45.671Z,25.68
2023-04-23T11:39:45.748Z,25.68
2023-04-23T11:40:45.581Z,25.68
2023-04-23T11:41:45.522Z,25.67
2023-04-23T11:42:45.488Z,25.68
2023-04-23T11:43:45.477Z,25.68
2023-04-23T11:44:45.505Z,25.68
2023-04-23T11:45:45.461Z,25.68
2023-04-23T11:46:45.378Z,25.69
2023-04-23T11:47:45.417Z,25.68
2023-04-23T11:48:45.376Z,25.67
2023-04-23T11:49:45.827Z,25.67
2023-04-23T11:50:45.327Z,25.68
2023-04-23T11:51:45.317Z,25.69
2023-04-23T11:52:45.288Z,25.69
2023-04-23T11:53:45.300Z,25.68
2023-04-23T11:54:45.308Z,25.68
2023-04-23T11:55:45.247Z,25.67
2023-04-23T11:56:45.260Z,25.67
2023-04-23T11:57:45.251Z,25.67
2023-04-23T11:58:45.246Z,25.67
2023-04-23T11:59:45.345Z,25.67
2023-04-23T12:00:45.270Z,25.69
2023-04-23T12:01:45.245Z,25.69
2023-04-23T12:02:45.350Z,25.69
2023-04-23T12:03:45.304Z,25.70
2023-04-23T12:04:45.262Z,25.70
2023-04-23T12:05:45.315Z,25.71
2023-04-23T12:06:45.236Z,25.72
2023-04-23T12:07:45.243Z,25.72
2023-04-23T12:08:45.241Z,25.72
2023-04-23T12:09:45.260Z,25.72
2023-04-23T12:10:45.257Z,25.70
2023-04-23T12:11:45.205Z,25.69
2023-04-23T12:12:45.221Z,25.68
2023-04-23T12:13:45.259Z,25.67
2023-04-23T12:14:45.274Z,25.67
2023-04-23T12:15:45.328Z,25.66
2023-04-23T12:16:45.279Z,25.67
2023-04-23T12:17:45.301Z,25.66
2023-04-23T12:18:45.290Z,25.67
2023-04-23T12:19:45.317Z,25.67
2023-04-23T12:20:45.319Z,25.65
2023-04-23T12:21:45.303Z,25.65
2023-04-23T12:22:45.275Z,25.65
2023-04-23T12:23:45.623Z,25.65
2023-04-23T12:24:45.300Z,25.66
2023-04-23T12:25:45.362Z,25.66
2023-04-23T12:26:45.336Z,25.66
2023-04-23T12:27:45.289Z,25.66
2023-04-23T12:28:45.293Z,25.67
2023-04-23T12:29:45.254Z,25.67
2023-04-23T12:30:45.302Z,25.68
2023-04-23T12:31:45.309Z,25.69
2023-04-23T12:32:45.316Z,25.70
2023-04-23T12:33:45.309Z,25.70
2023-04-23T12:34:45.320Z,25.71
2023-04-23T12:35:45.338Z,25.71
2023-04-23T12:36:45.326Z,25.71
2023-04-23T12:37:45.394Z,25.72
2023-04-23T12:38:45.360Z,25.71
2023-04-23T12:39:45.353Z,25.71
2023-04-23T12:40:45.342Z,25.72
2023-04-23T12:41:45.365Z,25.72
2023-04-23T12:42:45.344Z,25.72
2023-04-23T12:43:45.372Z,25.72
2023-04-23T12:44:45.384Z,25.71
2023-04-23T12:45:45.412Z,25.72
2023-04-23T12:46:45.405Z,25.72
2023-04-23T12:47:45.487Z,25.72
2023-04-23T12:48:45.380Z,25.72
2023-04-23T12:49:45.435Z,25.73
2023-04-23T12:50:45.393Z,25.72
2023-04-23T12:51:45.389Z,25.72
2023-04-23T12:52:45.386Z,25.71
2023-04-23T12:53:45.402Z,25.71
2023-04-23T12:54:45.403Z,25.71
2023-04-23T12:55:45.357Z,25.71